Time;durP1;ratioP1;P1;durP2;ratioP2;P2;SDS_P1;SDS_P2;PMS_P1;PMS_P2;Temp;Humidity;BMP_temperature;BMP_pressure;BME280_temperature;BME280_humidity;BME280_pressure;Samples;Min_cycle;Max_cycle;Signal;HPM_P1;HPM_P2
2022/12/03 00:01:40;;;;;;;52.08;20.48;;;4.40;97.60;;;;;;5030511;28;20450;-78
2022/12/03 00:04:06;;;;;;;54.20;20.40;;;4.40;97.40;;;;;;5031286;28;20029;-78
2022/12/03 00:06:32;;;;;;;56.45;21.55;;;4.40;97.60;;;;;;5030482;28;20079;-76
2022/12/03 00:08:57;;;;;;;59.17;21.75;;;4.30;97.60;;;;;;5029480;28;20598;-77
2022/12/03 00:11:23;;;;;;;58.55;22.02;;;4.40;97.60;;;;;;5030185;28;20455;-78
2022/12/03 00:13:48;;;;;;;59.95;22.80;;;4.40;97.60;;;;;;5030353;28;20029;-79
2022/12/03 00:16:14;;;;;;;58.55;22.63;;;4.50;97.50;;;;;;5030346;28;20026;-74
2022/12/03 00:18:40;;;;;;;69.07;24.85;;;4.40;97.50;;;;;;5030546;28;20448;-77
2022/12/03 00:21:05;;;;;;;66.03;23.75;;;4.50;97.60;;;;;;5028976;28;20053;-78
2022/12/03 00:23:31;;;;;;;67.20;24.13;;;4.50;97.50;;;;;;5032853;28;20085;-78
2022/12/03 00:25:57;;;;;;;70.93;25.85;;;4.40;97.40;;;;;;5033092;28;20120;-77
2022/12/03 00:28:22;;;;;;;62.13;22.90;;;4.40;97.50;;;;;;5032834;28;20025;-78
2022/12/03 00:30:48;;;;;;;75.10;26.02;;;4.40;97.50;;;;;;5033345;28;20541;-77
2022/12/03 00:33:14;;;;;;;65.68;24.40;;;4.40;97.50;;;;;;5033940;28;20036;-78
2022/12/03 00:35:40;;;;;;;69.15;24.17;;;4.40;97.50;;;;;;5033969;28;20069;-76
2022/12/03 00:38:06;;;;;;;70.88;23.27;;;4.40;97.40;;;;;;5033884;28;20048;-78
2022/12/03 00:40:31;;;;;;;64.10;23.38;;;4.40;97.50;;;;;;5033865;28;20037;-81
2022/12/03 00:42:57;;;;;;;61.58;22.40;;;4.40;97.50;;;;;;5033925;28;20053;-78
2022/12/03 00:45:23;;;;;;;63.85;22.75;;;4.40;97.60;;;;;;5032530;28;20041;-77
2022/12/03 00:47:48;;;;;;;58.95;21.80;;;4.40;97.60;;;;;;5033353;28;20117;-79
2022/12/03 00:50:14;;;;;;;63.55;23.73;;;4.40;97.50;;;;;;5032518;28;20116;-76
2022/12/03 00:52:40;;;;;;;59.95;22.75;;;4.30;97.40;;;;;;5032460;28;20033;-79
2022/12/03 00:55:06;;;;;;;63.72;22.73;;;4.30;97.50;;;;;;5033189;28;20017;-78
2022/12/03 00:57:31;;;;;;;64.93;23.70;;;4.30;97.50;;;;;;5033559;28;20087;-77
2022/12/03 00:59:57;;;;;;;58.75;22.35;;;4.20;97.60;;;;;;5032467;28;20026;-78
2022/12/03 01:02:23;;;;;;;61.47;23.17;;;4.20;97.60;;;;;;5033351;28;20444;-76
2022/12/03 01:04:49;;;;;;;62.45;22.83;;;4.20;97.70;;;;;;5033514;28;20137;-76
2022/12/03 01:07:14;;;;;;;58.00;22.40;;;4.20;97.70;;;;;;5032973;28;20113;-76
2022/12/03 01:09:40;;;;;;;56.10;22.13;;;4.10;97.80;;;;;;5033653;28;20041;-76
2022/12/03 01:12:06;;;;;;;59.95;21.42;;;4.10;97.80;;;;;;5033086;28;20076;-74
2022/12/03 01:14:31;;;;;;;56.42;20.70;;;4.10;97.80;;;;;;5033364;28;20466;-75
2022/12/03 01:16:57;;;;;;;58.65;21.80;;;4.10;97.90;;;;;;5033208;28;20034;-76
2022/12/03 01:19:23;;;;;;;59.30;22.48;;;4.20;97.90;;;;;;5032802;28;20459;-75
2022/12/03 01:21:50;;;;;;;55.60;22.08;;;4.20;97.90;;;;;;5033433;28;20014;-76
2022/12/03 01:24:17;;;;;;;65.97;24.00;;;4.20;97.90;;;;;;5033250;28;20037;-76
2022/12/03 01:26:42;;;;;;;62.47;23.38;;;4.10;97.90;;;;;;5032885;28;20067;-76
2022/12/03 01:29:08;;;;;;;59.58;20.48;;;4.10;98.00;;;;;;5032836;28;20045;-75
2022/12/03 01:34:18;;;;;;;61.72;21.20;;;4.10;98.10;;;;;;5032409;28;20040;-78
2022/12/03 01:36:44;;;;;;;54.28;20.63;;;4.10;98.00;;;;;;5033079;28;20444;-75
2022/12/03 01:39:09;;;;;;;58.08;21.23;;;4.00;98.00;;;;;;5032433;28;20041;-75
2022/12/03 01:41:36;;;;;;;55.40;20.08;;;4.00;98.10;;;;;;5032582;28;20044;-75
2022/12/03 01:44:06;;;;;;;54.78;21.38;;;4.00;98.20;;;;;;5032527;28;20060;-79
2022/12/03 01:46:39;;;;;;;61.17;21.85;;;4.00;98.20;;;;;;5032348;28;20073;-76
2022/12/03 01:49:08;;;;;;;56.25;20.38;;;3.90;98.40;;;;;;5032707;28;20044;-75
2022/12/03 01:51:33;;;;;;;53.90;20.33;;;3.90;98.30;;;;;;5032342;28;20034;-77
2022/12/03 01:54:00;;;;;;;62.78;22.15;;;4.00;98.40;;;;;;5031125;28;20176;-77
2022/12/03 01:56:26;;;;;;;55.08;19.85;;;4.00;98.40;;;;;;5031171;28;20036;-77
2022/12/03 01:58:52;;;;;;;60.95;20.58;;;3.90;98.40;;;;;;5032000;28;20033;-76
2022/12/03 02:01:18;;;;;;;53.67;20.63;;;3.90;98.40;;;;;;5032144;28;20021;-76
2022/12/03 02:03:45;;;;;;;67.13;21.35;;;3.90;98.40;;;;;;5032433;28;20087;-77
2022/12/03 02:06:19;;;;;;;60.58;21.00;;;3.90;98.40;;;;;;5032297;28;20514;-76
2022/12/03 02:08:46;;;;;;;58.50;21.17;;;3.90;98.70;;;;;;5032026;28;20038;-75
2022/12/03 02:11:24;;;;;;;63.08;21.85;;;3.90;98.60;;;;;;5031742;28;20122;-76
2022/12/03 02:13:53;;;;;;;67.80;22.50;;;3.80;98.50;;;;;;5032197;28;20502;-76
2022/12/03 02:16:20;;;;;;;62.35;20.65;;;3.90;98.50;;;;;;5030910;28;20455;-75
2022/12/03 02:18:46;;;;;;;66.70;23.35;;;3.80;98.50;;;;;;5032393;28;20092;-76
2022/12/03 02:21:26;;;;;;;66.77;23.37;;;3.80;98.40;;;;;;5031890;28;20033;-75
2022/12/03 02:24:10;;;;;;;64.47;20.98;;;3.80;98.40;;;;;;5030775;28;20463;-76
2022/12/03 02:26:36;;;;;;;61.97;21.45;;;3.90;98.40;;;;;;5031712;28;20447;-75
2022/12/03 02:29:03;;;;;;;66.72;21.33;;;3.80;98.30;;;;;;5030665;28;20030;-76
2022/12/03 02:31:28;;;;;;;65.63;21.65;;;3.90;98.40;;;;;;5030716;28;20025;-77
2022/12/03 02:33:54;;;;;;;64.35;22.33;;;3.80;98.30;;;;;;5030899;28;20079;-79
2022/12/03 02:36:20;;;;;;;65.60;21.30;;;3.70;98.30;;;;;;5019171;28;20120;-77
2022/12/03 02:38:47;;;;;;;66.88;22.45;;;3.70;98.30;;;;;;5011899;28;20125;-77
2022/12/03 02:44:05;;;;;;;58.70;21.58;;;3.70;98.40;;;;;;5010251;28;20034;-76
2022/12/03 02:46:31;;;;;;;64.75;22.17;;;3.70;98.30;;;;;;5010919;28;20025;-77
2022/12/03 02:48:58;;;;;;;64.88;23.25;;;3.70;98.40;;;;;;5012082;28;20515;-77
2022/12/03 02:51:25;;;;;;;65.68;22.83;;;3.70;98.40;;;;;;5011593;28;20040;-77
2022/12/03 02:53:53;;;;;;;58.28;20.48;;;3.70;98.30;;;;;;5011722;28;20030;-76
2022/12/03 02:56:25;;;;;;;58.28;21.52;;;3.70;98.30;;;;;;5011597;28;20034;-76
2022/12/03 02:58:55;;;;;;;65.38;21.92;;;3.70;98.30;;;;;;5010197;28;20062;-78
2022/12/03 03:01:21;;;;;;;61.58;21.27;;;3.80;98.30;;;;;;5011482;28;20531;-77
2022/12/03 03:03:47;;;;;;;58.83;20.63;;;3.80;98.30;;;;;;5011841;28;20105;-77
2022/12/03 03:06:14;;;;;;;50.53;19.27;;;3.70;98.20;;;;;;5010219;28;20664;-73
2022/12/03 03:08:41;;;;;;;55.42;20.60;;;3.70;98.20;;;;;;5010509;28;20041;-76
2022/12/03 03:11:07;;;;;;;54.97;20.53;;;3.70;98.20;;;;;;5011406;28;20054;-76
2022/12/03 03:13:34;;;;;;;53.25;18.67;;;3.70;98.10;;;;;;5011337;28;20410;-77
2022/12/03 03:16:02;;;;;;;53.75;20.38;;;3.70;98.10;;;;;;5011835;28;20113;-75
2022/12/03 03:18:28;;;;;;;52.15;19.75;;;3.80;98.00;;;;;;5011341;28;20272;-76
2022/12/03 03:20:53;;;;;;;55.05;18.95;;;3.70;97.90;;;;;;5011273;28;20026;-77
2022/12/03 03:23:22;;;;;;;51.20;18.10;;;3.80;98.00;;;;;;5010254;28;20038;-76
2022/12/03 03:26:04;;;;;;;57.35;21.35;;;3.70;97.90;;;;;;5011432;28;20033;-79
2022/12/03 03:28:31;;;;;;;59.83;19.77;;;3.70;97.90;;;;;;5011647;28;20022;-78
2022/12/03 03:30:59;;;;;;;55.92;19.98;;;3.60;97.70;;;;;;5010662;28;20030;-78
2022/12/03 03:33:25;;;;;;;52.40;19.17;;;3.60;97.90;;;;;;5011332;28;20057;-76
2022/12/03 03:35:52;;;;;;;58.17;21.27;;;3.60;98.10;;;;;;5011088;28;20030;-76
2022/12/03 03:38:19;;;;;;;56.78;20.13;;;3.60;97.90;;;;;;5010286;28;20383;-76
2022/12/03 03:40:47;;;;;;;55.10;20.77;;;3.60;97.90;;;;;;5011061;28;20112;-79
2022/12/03 03:43:14;;;;;;;56.13;19.73;;;3.60;97.90;;;;;;5011393;28;20408;-77
2022/12/03 03:45:40;;;;;;;61.05;21.02;;;3.60;97.90;;;;;;5009378;28;20471;-77
2022/12/03 03:48:06;;;;;;;53.50;19.90;;;3.60;97.90;;;;;;5011171;28;20026;-76
2022/12/03 03:50:32;;;;;;;49.95;18.83;;;3.60;97.90;;;;;;5010988;28;20041;-77
2022/12/03 03:53:01;;;;;;;57.63;20.17;;;3.60;97.90;;;;;;5010753;28;20053;-76
2022/12/03 03:55:27;;;;;;;52.67;20.02;;;3.60;97.80;;;;;;5009845;28;20478;-78
2022/12/03 03:57:53;;;;;;;57.10;20.10;;;3.60;97.80;;;;;;5014750;28;20092;-76
2022/12/03 04:00:19;;;;;;;58.67;20.42;;;3.60;97.70;;;;;;5014936;28;20034;-76
2022/12/03 04:02:45;;;;;;;51.80;20.23;;;3.60;97.70;;;;;;5014762;28;20030;-77
2022/12/03 04:05:18;;;;;;;56.72;20.73;;;3.60;97.80;;;;;;5013672;28;20460;-76
2022/12/03 04:07:44;;;;;;;53.75;19.05;;;3.60;97.80;;;;;;5015220;28;20470;-76
2022/12/03 04:12:54;;;;;;;49.58;18.50;;;3.60;97.80;;;;;;5014154;28;20061;-77
2022/12/03 04:15:20;;;;;;;51.88;19.08;;;3.60;97.90;;;;;;5014488;28;20030;-77
2022/12/03 04:18:41;;;;;;;51.17;19.58;;;3.60;98.00;;;;;;5014315;28;20049;-76
2022/12/03 04:20:32;;;;;;;46.25;17.30;;;3.60;98.00;;;;;;5014213;28;20116;-76
2022/12/03 04:22:57;;;;;;;51.67;18.27;;;3.60;97.90;;;;;;5014281;28;20034;-80
2022/12/03 04:30:53;;;;;;;50.03;17.83;;;3.60;97.90;;;;;;5014098;28;20502;-77
2022/12/03 04:36:03;;;;;;;48.17;17.13;;;3.60;98.00;;;;;;5014140;28;20479;-78
2022/12/03 04:38:28;;;;;;;53.78;17.95;;;3.70;98.00;;;;;;5013993;28;20034;-77
2022/12/03 04:41:00;;;;;;;43.03;18.00;;;3.60;97.90;;;;;;5013836;28;20048;-76
2022/12/03 04:43:27;;;;;;;49.55;17.63;;;3.70;98.00;;;;;;5013933;28;20044;-76
2022/12/03 04:45:52;;;;;;;48.20;18.17;;;3.70;98.00;;;;;;5013199;28;20034;-74
2022/12/03 04:48:18;;;;;;;46.13;16.92;;;3.60;97.80;;;;;;5013731;28;20022;-75
2022/12/03 04:50:44;;;;;;;50.25;17.38;;;3.60;97.70;;;;;;5013982;28;20117;-75
2022/12/03 04:53:09;;;;;;;47.33;17.02;;;3.60;97.80;;;;;;5013735;28;20332;-75
2022/12/03 04:55:35;;;;;;;53.47;17.73;;;3.60;97.70;;;;;;5013802;28;20303;-76
2022/12/03 04:58:01;;;;;;;46.88;17.23;;;3.60;97.90;;;;;;5014189;28;20053;-75
2022/12/03 05:00:27;;;;;;;46.90;16.70;;;3.50;97.90;;;;;;5013982;28;20081;-76
2022/12/03 05:02:52;;;;;;;49.17;16.92;;;3.50;98.10;;;;;;5013773;28;20029;-75
2022/12/03 05:05:18;;;;;;;46.15;17.83;;;3.70;98.20;;;;;;5013373;28;20115;-75
2022/12/03 05:07:44;;;;;;;57.67;18.55;;;3.60;98.30;;;;;;5012652;28;20026;-76
2022/12/03 05:10:10;;;;;;;54.47;18.52;;;3.60;98.20;;;;;;5014206;28;20026;-76
2022/12/03 05:12:36;;;;;;;55.70;20.67;;;3.50;98.00;;;;;;5013119;28;20506;-76
2022/12/03 05:15:02;;;;;;;64.18;20.67;;;3.60;98.10;;;;;;5013348;28;20334;-76
2022/12/03 05:17:28;;;;;;;51.83;20.17;;;3.50;98.00;;;;;;5012165;28;20030;-76
2022/12/03 05:22:38;;;;;;;67.65;22.65;;;3.50;98.10;;;;;;5013498;28;20592;-76
2022/12/03 05:25:05;;;;;;;63.58;21.27;;;3.50;98.00;;;;;;5013431;28;20097;-77
2022/12/03 05:27:30;;;;;;;62.83;21.88;;;3.50;98.10;;;;;;5012482;28;20233;-76
2022/12/03 05:29:56;;;;;;;66.07;22.90;;;3.40;98.00;;;;;;5012765;28;20121;-76
2022/12/03 05:32:22;;;;;;;66.60;24.00;;;3.40;97.90;;;;;;5013050;28;20117;-77
2022/12/03 05:34:47;;;;;;;68.55;25.15;;;3.40;98.00;;;;;;5012111;28;20026;-77
2022/12/03 05:37:13;;;;;;;70.03;23.63;;;3.40;98.20;;;;;;5012424;28;20073;-77
2022/12/03 05:39:39;;;;;;;72.93;25.50;;;3.40;98.00;;;;;;5013100;28;20349;-77
2022/12/03 05:44:49;;;;;;;79.97;25.73;;;3.30;98.00;;;;;;5012711;28;20375;-77
2022/12/03 05:47:15;;;;;;;69.07;23.90;;;3.30;97.90;;;;;;5012729;28;20034;-77
2022/12/03 05:49:40;;;;;;;74.25;25.63;;;3.20;97.90;;;;;;5011815;28;20037;-75
2022/12/03 05:52:06;;;;;;;68.03;24.50;;;3.20;98.00;;;;;;5012053;28;20128;-75
2022/12/03 05:54:31;;;;;;;73.63;25.50;;;3.20;97.90;;;;;;5011811;28;20105;-76
2022/12/03 05:56:57;;;;;;;76.35;26.70;;;3.20;98.30;;;;;;5011434;28;20384;-77
2022/12/03 05:59:23;;;;;;;74.82;25.20;;;3.20;98.00;;;;;;5011778;28;20046;-75
2022/12/03 06:01:48;;;;;;;79.63;25.77;;;3.20;98.00;;;;;;5011577;28;20096;-74
2022/12/03 06:04:14;;;;;;;76.65;26.20;;;3.20;98.00;;;;;;5012557;28;20034;-75
2022/12/03 06:06:40;;;;;;;74.60;24.17;;;3.20;98.00;;;;;;5013015;28;20436;-77
2022/12/03 06:09:05;;;;;;;75.90;24.98;;;3.20;97.90;;;;;;5012324;28;20038;-75
2022/12/03 06:11:33;;;;;;;82.18;26.58;;;3.20;97.80;;;;;;5012134;28;20057;-78
2022/12/03 06:13:59;;;;;;;;;;;3.20;97.70;;;;;;5012756;28;20091;-77
2022/12/03 06:16:25;;;;;;;75.45;25.38;;;3.10;97.80;;;;;;5012216;28;19914;-76
2022/12/03 06:18:51;;;;;;;75.30;25.98;;;3.20;97.90;;;;;;5011150;28;20057;-76
2022/12/03 06:21:16;;;;;;;74.40;25.88;;;3.10;97.90;;;;;;5011155;28;20095;-77
2022/12/03 06:23:43;;;;;;;73.32;25.80;;;3.10;97.90;;;;;;5012186;28;20480;-77
2022/12/03 06:26:13;;;;;;;64.38;24.60;;;3.00;97.90;;;;;;5010927;28;20137;-76
2022/12/03 06:28:39;;;;;;;77.43;29.08;;;3.10;97.90;;;;;;5012239;28;20034;-74
2022/12/03 06:31:05;;;;;;;82.78;27.20;;;3.10;98.00;;;;;;5012242;28;20452;-75
2022/12/03 06:33:31;;;;;;;87.65;27.45;;;3.10;98.00;;;;;;5010992;28;20022;-76
2022/12/03 06:35:57;;;;;;;73.88;26.35;;;3.10;97.90;;;;;;5012049;28;20036;-78
2022/12/03 06:38:22;;;;;;;81.40;27.42;;;3.20;98.10;;;;;;5012251;28;20132;-78
2022/12/03 06:40:48;;;;;;;89.97;25.67;;;3.10;98.00;;;;;;5012001;28;20045;-79
2022/12/03 06:43:14;;;;;;;79.93;25.75;;;3.00;98.00;;;;;;5012714;28;20448;-79
2022/12/03 06:45:40;;;;;;;89.30;29.80;;;3.10;98.10;;;;;;5012295;28;20092;-78
2022/12/03 06:48:06;;;;;;;80.65;26.27;;;3.20;98.00;;;;;;5012277;28;20034;-79
2022/12/03 06:50:32;;;;;;;88.63;28.45;;;3.20;98.00;;;;;;5012634;28;20025;-81
2022/12/03 06:52:58;;;;;;;92.38;27.58;;;3.10;97.90;;;;;;5012569;28;20405;-77
2022/12/03 06:55:23;;;;;;;81.88;26.73;;;3.20;98.00;;;;;;5012529;28;20406;-82
2022/12/03 06:57:49;;;;;;;80.88;26.90;;;3.20;98.20;;;;;;5012697;28;20068;-78
2022/12/03 07:00:15;;;;;;;77.40;26.48;;;3.20;97.80;;;;;;5010782;28;20468;-79
2022/12/03 07:02:43;;;;;;;81.18;26.75;;;3.20;97.60;;;;;;5011758;28;20026;-77
2022/12/03 07:05:09;;;;;;;80.32;26.88;;;3.20;97.70;;;;;;5010829;28;20034;-77
2022/12/03 07:07:35;;;;;;;86.78;26.50;;;3.30;97.70;;;;;;5010617;28;20207;-78
2022/12/03 07:10:01;;;;;;;87.22;27.63;;;3.30;97.50;;;;;;5011305;28;20138;-79
2022/12/03 07:12:26;;;;;;;80.22;26.95;;;3.30;97.50;;;;;;5011964;28;20057;-79
2022/12/03 07:14:52;;;;;;;83.47;26.77;;;3.20;97.50;;;;;;5011439;28;20026;-77
2022/12/03 07:17:18;;;;;;;85.82;28.35;;;3.20;97.60;;;;;;5011666;28;20036;-76
2022/12/03 07:19:43;;;;;;;82.75;27.77;;;3.30;97.50;;;;;;5011525;28;20125;-76
2022/12/03 07:22:09;;;;;;;73.50;26.73;;;3.20;97.40;;;;;;5011504;28;20401;-80
2022/12/03 07:24:35;;;;;;;75.70;26.58;;;3.20;97.30;;;;;;5010288;28;20117;-79
2022/12/03 07:27:00;;;;;;;73.22;27.00;;;3.20;97.40;;;;;;5011028;28;20479;-81
2022/12/03 07:29:26;;;;;;;78.32;26.83;;;3.20;97.40;;;;;;5011133;28;20053;-76
2022/12/03 07:31:52;;;;;;;76.60;26.60;;;3.20;97.40;;;;;;5009567;28;20034;-75
2022/12/03 07:34:17;;;;;;;82.15;27.05;;;3.20;97.30;;;;;;5011705;28;20018;-76
2022/12/03 07:36:43;;;;;;;73.90;24.88;;;3.20;97.20;;;;;;5011744;28;20084;-78
2022/12/03 07:39:09;;;;;;;75.63;23.90;;;3.20;97.20;;;;;;5010933;28;20133;-76
2022/12/03 07:41:34;;;;;;;81.25;27.35;;;3.20;97.10;;;;;;5011070;28;20434;-80
2022/12/03 07:44:00;;;;;;;80.68;26.10;;;3.20;97.10;;;;;;5010464;28;20053;-78
2022/12/03 07:46:25;;;;;;;76.28;25.92;;;3.10;97.10;;;;;;5010850;28;20155;-79
2022/12/03 07:48:51;;;;;;;76.20;25.10;;;3.10;97.10;;;;;;5010647;28;20410;-78
2022/12/03 07:51:17;;;;;;;78.82;25.40;;;3.20;97.20;;;;;;5011414;28;20088;-78
2022/12/03 07:53:43;;;;;;;81.80;27.95;;;3.10;97.20;;;;;;5011277;28;20037;-78
2022/12/03 07:56:09;;;;;;;84.13;27.67;;;3.30;97.30;;;;;;5010023;28;20614;-77
2022/12/03 07:58:43;;;;;;;85.50;27.73;;;3.10;97.00;;;;;;5013292;28;20077;-78
2022/12/03 08:01:09;;;;;;;77.15;25.90;;;3.10;97.00;;;;;;5012291;28;20348;-78
2022/12/03 08:03:35;;;;;;;81.43;27.92;;;3.10;97.00;;;;;;5009819;28;20456;-76
2022/12/03 08:06:01;;;;;;;76.90;26.70;;;3.10;97.20;;;;;;5010025;28;20372;-82
2022/12/03 08:08:26;;;;;;;79.28;25.55;;;3.00;97.00;;;;;;5010125;28;20045;-82
2022/12/03 08:10:52;;;;;;;76.03;25.73;;;3.10;97.10;;;;;;5010200;28;20351;-83
2022/12/03 08:13:18;;;;;;;75.03;26.98;;;3.10;97.30;;;;;;5011013;28;20041;-83
2022/12/03 08:15:44;;;;;;;78.60;25.77;;;3.20;97.00;;;;;;5010071;28;20088;-76
2022/12/03 08:18:17;;;;;;;75.72;25.45;;;3.00;96.90;;;;;;5010770;28;20041;-74
2022/12/03 08:20:45;;;;;;;81.18;27.30;;;3.00;97.10;;;;;;5010837;28;20030;-80
2022/12/03 08:23:14;;;;;;;85.22;27.83;;;3.00;97.10;;;;;;5011058;28;20033;-79
2022/12/03 08:25:41;;;;;;;77.05;27.02;;;3.10;97.20;;;;;;5009963;28;20044;-78
2022/12/03 08:28:12;;;;;;;76.10;25.77;;;3.10;97.20;;;;;;5012121;28;20092;-79
2022/12/03 08:30:40;;;;;;;80.10;27.92;;;3.00;97.20;;;;;;5010994;28;20453;-79
2022/12/03 08:33:16;;;;;;;78.10;27.05;;;3.10;97.30;;;;;;5009512;28;20460;-82
2022/12/03 08:35:47;;;;;;;73.10;26.63;;;3.10;97.10;;;;;;5009844;28;20451;-80
2022/12/03 08:38:13;;;;;;;84.70;28.13;;;3.10;97.10;;;;;;5009351;28;20042;-81
2022/12/03 08:40:42;;;;;;;78.70;27.85;;;3.20;96.90;;;;;;5010458;28;20452;-81
2022/12/03 08:43:30;;;;;;;87.00;29.20;;;3.20;97.00;;;;;;5010678;28;20112;-82
2022/12/03 08:45:56;;;;;;;76.55;26.42;;;3.20;96.90;;;;;;5014859;28;20069;-84
2022/12/03 08:48:37;;;;;;;81.70;28.90;;;3.30;97.00;;;;;;5013933;28;20041;-83
2022/12/03 08:51:19;;;;;;;80.68;26.98;;;3.20;97.10;;;;;;5011214;28;20034;-85
2022/12/03 08:53:56;;;;;;;85.88;27.27;;;3.20;97.00;;;;;;5013484;28;20468;-80
2022/12/03 08:56:25;;;;;;;95.35;31.10;;;3.20;97.00;;;;;;5014807;28;20030;-82
2022/12/03 08:58:52;;;;;;;87.43;29.50;;;3.20;97.30;;;;;;5014720;28;20536;-79
2022/12/03 09:01:41;;;;;;;89.60;28.87;;;3.30;97.20;;;;;;5014806;28;20038;-80
2022/12/03 09:04:21;;;;;;;87.78;28.83;;;3.20;97.30;;;;;;5014688;28;20046;-85
2022/12/03 09:06:47;;;;;;;87.57;29.92;;;3.20;97.30;;;;;;5014173;28;20030;-85
2022/12/03 09:09:14;;;;;;;88.97;29.83;;;3.30;97.30;;;;;;5014827;28;20088;-86
2022/12/03 09:11:39;;;;;;;81.93;28.67;;;3.20;97.30;;;;;;5015040;28;20096;-87
2022/12/03 09:14:05;;;;;;;84.10;28.88;;;3.20;97.40;;;;;;5015620;28;20201;-88
2022/12/03 09:16:31;;;;;;;84.28;28.55;;;3.40;97.30;;;;;;5015705;28;20388;-90
2022/12/03 09:18:57;;;;;;;86.65;29.98;;;3.40;97.10;;;;;;5013799;28;20026;-84
2022/12/03 09:21:22;;;;;;;82.63;30.02;;;3.40;97.00;;;;;;5012489;28;20463;-76
2022/12/03 09:23:48;;;;;;;89.32;29.88;;;3.40;97.00;;;;;;5012140;28;20037;-74
2022/12/03 09:26:14;;;;;;;85.85;28.17;;;3.40;97.00;;;;;;5014171;28;20077;-74
2022/12/03 09:28:39;;;;;;;81.95;29.42;;;3.40;97.20;;;;;;5013760;28;20042;-76
2022/12/03 09:31:05;;;;;;;78.63;27.52;;;3.40;97.00;;;;;;5013916;28;20041;-73
2022/12/03 09:33:31;;;;;;;88.32;29.65;;;3.30;97.00;;;;;;5013974;28;20081;-77
2022/12/03 09:35:58;;;;;;;90.00;29.50;;;3.40;97.20;;;;;;5012494;28;20049;-73
2022/12/03 09:38:24;;;;;;;86.95;31.05;;;3.40;97.00;;;;;;5013544;28;20038;-78
2022/12/03 09:40:51;;;;;;;74.50;27.75;;;3.50;97.00;;;;;;5012516;28;20108;-76
2022/12/03 09:43:17;;;;;;;71.78;27.85;;;3.40;97.00;;;;;;5013362;28;20045;-75
2022/12/03 09:45:46;;;;;;;88.35;29.75;;;3.40;97.20;;;;;;5013282;28;20460;-75
2022/12/03 09:48:20;;;;;;;94.25;31.88;;;3.40;97.20;;;;;;5013801;28;20026;-76
2022/12/03 09:50:46;;;;;;;73.13;28.55;;;3.40;97.20;;;;;;5012511;28;20042;-77
2022/12/03 09:53:19;;;;;;;87.63;29.65;;;3.40;97.20;;;;;;5012776;28;20030;-79
2022/12/03 09:55:46;;;;;;;79.53;28.30;;;3.40;97.20;;;;;;5012221;28;20045;-76
2022/12/03 09:58:15;;;;;;;75.65;28.08;;;3.50;97.00;;;;;;5012500;28;20434;-79
2022/12/03 10:00:44;;;;;;;92.18;29.45;;;3.50;96.90;;;;;;5013389;28;20365;-78
2022/12/03 10:03:13;;;;;;;78.07;28.52;;;3.40;96.80;;;;;;5013660;28;20092;-80
2022/12/03 10:05:39;;;;;;;84.28;30.40;;;3.50;96.80;;;;;;5020299;28;20046;-77
2022/12/03 10:08:11;;;;;;;85.95;30.65;;;3.40;96.50;;;;;;5033203;28;20028;-78
2022/12/03 10:10:39;;;;;;;79.75;29.10;;;3.40;96.60;;;;;;5032002;28;20301;-79
2022/12/03 10:13:09;;;;;;;82.22;29.98;;;3.30;96.70;;;;;;5031569;28;20140;-78
2022/12/03 10:15:35;;;;;;;82.47;30.65;;;3.30;96.80;;;;;;5032230;28;20140;-78
2022/12/03 10:18:18;;;;;;;88.15;31.65;;;3.30;96.90;;;;;;5032017;28;20555;-79
2022/12/03 10:20:45;;;;;;;82.90;31.77;;;3.40;96.90;;;;;;5031928;28;20025;-80
2022/12/03 10:23:31;;;;;;;87.93;31.70;;;3.40;96.90;;;;;;5032118;28;20033;-82
2022/12/03 10:26:01;;;;;;;86.13;30.92;;;3.40;96.60;;;;;;5032682;28;20107;-79
2022/12/03 10:28:33;;;;;;;91.68;34.00;;;3.40;96.70;;;;;;5033044;28;20120;-79
2022/12/03 10:31:01;;;;;;;99.82;32.47;;;3.30;96.70;;;;;;5031810;28;20037;-79
2022/12/03 10:33:30;;;;;;;80.05;31.25;;;3.40;96.80;;;;;;5032192;28;20124;-79
2022/12/03 10:35:56;;;;;;;93.97;31.98;;;3.40;96.80;;;;;;5032646;28;20091;-79
2022/12/03 10:38:22;;;;;;;91.57;31.67;;;3.30;96.80;;;;;;5032435;28;20033;-79
2022/12/03 10:40:49;;;;;;;96.07;33.00;;;3.40;96.90;;;;;;5031588;28;20057;-80
2022/12/03 10:43:17;;;;;;;85.78;32.13;;;3.40;96.70;;;;;;5032369;28;20033;-79
2022/12/03 10:45:48;;;;;;;84.18;30.30;;;3.40;96.70;;;;;;5032303;28;20068;-80
2022/12/03 10:48:26;;;;;;;86.43;31.00;;;3.50;96.80;;;;;;5033353;28;20026;-81
2022/12/03 10:50:51;;;;;;;;;;;3.50;96.60;;;;;;5032916;28;20033;-81
2022/12/03 10:53:19;;;;;;;85.70;29.15;;;3.50;96.40;;;;;;5033442;28;19908;-79
2022/12/03 10:55:46;;;;;;;91.78;33.20;;;3.50;96.40;;;;;;5032309;28;20106;-79
2022/12/03 10:58:22;;;;;;;87.22;29.58;;;3.50;96.40;;;;;;5032359;28;20033;-80
2022/12/03 11:00:50;;;;;;;89.22;33.53;;;3.40;96.30;;;;;;5032430;28;20420;-79
2022/12/03 11:03:19;;;;;;;88.35;30.70;;;3.50;96.30;;;;;;5031679;28;20474;-79
2022/12/03 11:05:45;;;;;;;90.15;31.17;;;3.70;96.40;;;;;;5031745;28;20076;-79
2022/12/03 11:08:44;;;;;;;81.63;31.23;;;3.40;96.30;;;;;;5030861;28;20033;-80
2022/12/03 11:11:24;;;;;;;87.55;31.15;;;3.50;96.40;;;;;;5028508;28;20188;-79
2022/12/03 11:14:01;;;;;;;92.32;32.88;;;3.50;96.50;;;;;;5032216;28;20036;-77
2022/12/03 11:16:39;;;;;;;84.40;30.77;;;3.50;96.60;;;;;;5031938;28;20038;-79
2022/12/03 11:19:24;;;;;;;;;;;3.60;96.40;;;;;;5032110;28;20045;-80
2022/12/03 11:22:05;;;;;;;82.20;29.50;;;3.60;96.30;;;;;;5029127;28;19956;-79
2022/12/03 11:24:33;;;;;;;84.32;31.42;;;3.60;96.10;;;;;;5032230;28;20022;-81
2022/12/03 11:26:59;;;;;;;78.40;30.23;;;3.70;96.10;;;;;;5031508;28;20033;-79
2022/12/03 11:29:58;;;;;;;77.70;30.55;;;3.60;96.00;;;;;;5031700;28;20025;-78
2022/12/03 11:32:41;;;;;;;83.82;29.40;;;3.70;96.10;;;;;;5008824;28;20038;-79
2022/12/03 11:35:31;;;;;;;83.93;31.75;;;3.60;96.00;;;;;;5030381;28;20040;-79
2022/12/03 11:38:35;;;;;;;77.22;30.02;;;3.60;96.10;;;;;;5029856;28;20030;-80
2022/12/03 11:41:08;;;;;;;83.05;31.05;;;3.60;96.20;;;;;;5031492;28;20455;-78
2022/12/03 11:43:55;;;;;;;80.70;30.58;;;3.60;96.00;;;;;;5031799;28;20060;-78
2022/12/03 11:46:35;;;;;;;80.88;30.38;;;3.60;96.10;;;;;;5033163;28;20041;-80
2022/12/03 11:49:03;;;;;;;73.55;30.48;;;3.60;96.10;;;;;;5031963;28;20026;-79
2022/12/03 11:51:29;;;;;;;79.82;30.73;;;3.60;96.00;;;;;;5032054;28;20096;-79
2022/12/03 11:53:57;;;;;;;78.07;30.58;;;3.70;95.90;;;;;;5030634;28;20029;-80
2022/12/03 11:56:29;;;;;;;;;;;3.70;96.00;;;;;;5032089;28;20043;-80
2022/12/03 11:59:03;;;;;;;72.72;29.98;;;3.70;96.10;;;;;;5031447;28;19928;-77
2022/12/03 12:01:47;;;;;;;78.05;30.52;;;3.80;96.10;;;;;;5031560;28;20404;-78
2022/12/03 12:04:32;;;;;;;70.07;28.75;;;3.90;96.00;;;;;;5031380;28;20487;-79
2022/12/03 12:06:58;;;;;;;74.03;28.27;;;3.80;95.80;;;;;;5031667;28;21695;-79
2022/12/03 12:09:53;;;;;;;72.13;29.35;;;3.80;95.90;;;;;;5033926;28;20390;-79
2022/12/03 12:12:26;;;;;;;69.65;27.98;;;3.80;95.70;;;;;;5031608;28;20124;-79
2022/12/03 12:14:52;;;;;;;72.30;28.85;;;3.70;95.60;;;;;;5031727;28;20029;-79
2022/12/03 12:17:32;;;;;;;71.40;28.33;;;3.70;95.70;;;;;;5031256;28;20091;-81
2022/12/03 12:20:23;;;;;;;70.45;28.92;;;3.70;95.60;;;;;;5034010;28;20593;-80
2022/12/03 12:22:49;;;;;;;69.43;27.38;;;3.80;95.60;;;;;;5035678;28;20025;-79
2022/12/03 12:25:45;;;;;;;70.95;27.88;;;3.90;95.70;;;;;;5035334;28;20045;-80
2022/12/03 12:28:11;;;;;;;73.90;27.80;;;3.70;95.50;;;;;;5030337;28;20033;-80
2022/12/03 12:30:38;;;;;;;69.88;28.85;;;3.80;95.70;;;;;;5035112;28;20341;-79
2022/12/03 12:33:25;;;;;;;76.78;28.77;;;3.80;95.70;;;;;;5035244;28;20060;-79
2022/12/03 12:35:50;;;;;;;73.47;29.02;;;3.80;95.80;;;;;;5035313;28;20562;-79
2022/12/03 12:38:19;;;;;;;72.55;28.33;;;3.80;95.60;;;;;;5034966;28;20375;-79
2022/12/03 12:40:49;;;;;;;73.60;29.00;;;3.80;95.80;;;;;;5034827;28;20034;-79
2022/12/03 12:43:17;;;;;;;73.28;29.02;;;3.80;95.90;;;;;;5034851;28;20048;-79
2022/12/03 12:45:43;;;;;;;71.43;28.35;;;3.80;95.80;;;;;;5034903;28;20022;-78
2022/12/03 12:48:12;;;;;;;67.03;27.20;;;3.90;95.80;;;;;;5035305;28;20029;-80
2022/12/03 12:50:38;;;;;;;70.68;29.08;;;3.90;95.80;;;;;;5034631;28;20463;-78
2022/12/03 12:53:21;;;;;;;83.13;27.92;;;3.90;95.60;;;;;;5033521;28;20120;-79
2022/12/03 12:55:48;;;;;;;76.25;29.42;;;4.00;95.60;;;;;;5033410;28;20045;-79
2022/12/03 12:58:18;;;;;;;66.97;27.50;;;4.00;95.50;;;;;;5033684;28;20543;-79
2022/12/03 13:00:56;;;;;;;67.50;28.17;;;4.00;95.30;;;;;;5033756;28;20029;-80
2022/12/03 13:03:31;;;;;;;65.75;28.98;;;3.90;95.10;;;;;;5034109;28;20022;-78
2022/12/03 13:05:56;;;;;;;71.95;29.52;;;3.80;95.20;;;;;;5033382;28;20059;-77
2022/12/03 13:08:24;;;;;;;69.07;27.38;;;3.80;95.30;;;;;;5033012;28;20025;-78